Presto, PA (15142)

2:20 PM EDT on April 19, 2015 (GMT -0400)
KPASCOTT2 | | Change Station
CLOSE
Current Station
Personal Weather Station
Location: Scott Township, PA
Elevation: 826 ft
Nearby Weather Stations

Elev 826 ft 40.40 °N, 80.10 °W | Updated 8 seconds ago

Mostly Cloudy
Mostly Cloudy
74.1 °F
Feels Like 76 °F
N
2.0
Wind Variable Wind from NW
Gusts 8.0 mph

Today
High -- | Low -- °F
--% Chance of Precip.
Yesterday
High -- | Low -- °F
Precip. -- in
6:36 AM 8:03 PM
New Moon, 1% visible
Pressure 29.92 in
Visibility 10.0 miles
Clouds Few 8000 ft
Overcast 20000 ft
Heat Index 76 °F
Dew Point 32 °F
Humidity 21%
Rainfall 0.00 in
Snow Depth Not available.
UV 3 out of 12
Pollen 9.90 out of 12
Air Quality Not available.
Flu Activity Sporadic
METAR KPIT 191751Z 13018G24KT 10SM FEW080 OVC200 22/03 A2991 RMK AO2 PK WND 13026/1728 SLP132 T02170028 10222 20128 58030

More Conditions Fewer Conditions

Pressure 29.92 in
Visibility 10.0 miles
Clouds Few 8000 ft
Overcast 20000 ft
Heat Index 76 °F
Dew Point 32 °F
Humidity 21%
Rainfall 0.00 in
Snow Depth Not available.
UV 3 out of 12
Pollen 9.90 out of 12
Air Quality Not available.
Flu Activity Sporadic
METAR KPIT 191751Z 13018G24KT 10SM FEW080 OVC200 22/03 A2991 RMK AO2 PK WND 13026/1728 SLP132 T02170028 10222 20128 58030

More Conditions Fewer Conditions

10-Day Weather Forecast

Almanac

Astronomy

Apr. 19, 2015 Rise Set
Actual Time
Civil Twilight
Nautical Twilight
Astronomical Twilight
Moon
Length of Visible Light
Length of Day
Tomorrow will be .
, % of the Moon is Illuminated

Today's Extremes

State Highs State Lows

Community

WunderPhotos

Upload Photos

1,814,896 photos uploaded!

WunderBlogs® & News

Nearby

Air Quality

  Air Quality AQ Index Pollutant
Not available.

Snow Depth

Station Depth Elevation

Earthquake Activity

City Distance Mag. Time & Date
Minimum magnitude displayed is 2.5.

Coastal Water Temperatures

Place Temperature

Stations

Nearby Weather Stations

Station Location Temp. Windchill Dew Point Humidity Wind Precip. Elev Updated Type